Time;durP1;ratioP1;P1;durP2;ratioP2;P2;SDS_P1;SDS_P2;PMS_P1;PMS_P2;Temp;Humidity;BMP_temperature;BMP_pressure;BME280_temperature;BME280_humidity;BME280_pressure;Samples;Min_cycle;Max_cycle;Signal;HPM_P1;HPM_P2
2023/10/24 00:01:46;;;;;;;6.43;4.63;;;12.00;99.90;;;;;;5056815;28;20423;-87
2023/10/24 00:04:13;;;;;;;8.15;6.85;;;12.00;99.90;;;;;;5056188;28;20040;-85
2023/10/24 00:06:39;;;;;;;7.57;5.50;;;12.00;99.90;;;;;;5057343;28;20063;-87
2023/10/24 00:09:06;;;;;;;6.55;5.65;;;12.00;99.90;;;;;;5056280;28;20052;-87
2023/10/24 00:11:33;;;;;;;6.40;5.68;;;12.00;99.90;;;;;;5039676;28;20040;-86
2023/10/24 00:13:59;;;;;;;9.27;7.07;;;12.10;99.90;;;;;;5039465;28;20032;-86
2023/10/24 00:16:26;;;;;;;9.95;8.68;;;12.00;99.90;;;;;;5024659;28;20048;-89
2023/10/24 00:18:52;;;;;;;10.32;8.15;;;12.00;99.90;;;;;;5025182;28;20051;-86
2023/10/24 00:21:18;;;;;;;9.32;7.47;;;12.10;99.90;;;;;;5041709;28;20048;-86
2023/10/24 00:23:44;;;;;;;8.98;6.65;;;12.10;99.90;;;;;;5057649;28;20048;-87
2023/10/24 00:26:11;;;;;;;8.43;6.65;;;12.10;99.90;;;;;;5056945;28;20042;-89
2023/10/24 00:28:40;;;;;;;10.88;8.65;;;12.10;99.90;;;;;;5058336;28;20040;-87
2023/10/24 00:31:07;;;;;;;11.00;7.28;;;12.10;99.90;;;;;;5049299;28;20043;-86
2023/10/24 00:33:49;;;;;;;8.38;5.63;;;12.10;99.90;;;;;;5023138;28;20048;-87
2023/10/24 00:36:15;;;;;;;10.20;6.50;;;12.10;99.90;;;;;;5057466;28;20040;-87
2023/10/24 00:38:41;;;;;;;8.35;7.00;;;12.10;99.90;;;;;;5023182;28;20425;-88
2023/10/24 00:41:08;;;;;;;9.98;8.98;;;12.10;99.90;;;;;;5021997;28;20043;-88
2023/10/24 00:43:34;;;;;;;11.07;9.95;;;12.10;99.90;;;;;;5024612;28;20043;-87
2023/10/24 00:46:02;;;;;;;12.68;11.38;;;12.10;99.90;;;;;;5023936;28;20040;-84
2023/10/24 00:48:30;;;;;;;15.18;13.77;;;12.10;99.90;;;;;;5043057;28;20044;-90
2023/10/24 00:50:56;;;;;;;18.23;16.45;;;12.10;99.90;;;;;;5027756;28;20566;-87
2023/10/24 00:53:23;;;;;;;11.75;10.60;;;12.10;99.90;;;;;;5058423;28;20055;-85
2023/10/24 00:55:50;;;;;;;12.52;11.43;;;12.10;99.90;;;;;;5058374;28;20044;-87
2023/10/24 00:58:17;;;;;;;13.80;12.50;;;12.20;99.90;;;;;;5036381;28;20403;-89
2023/10/24 01:00:45;;;;;;;12.38;11.15;;;12.20;99.90;;;;;;5039966;28;20074;-87
2023/10/24 01:03:13;;;;;;;17.58;15.80;;;12.20;99.90;;;;;;5023851;28;20113;-90
2023/10/24 01:05:42;;;;;;;15.32;13.73;;;12.20;99.90;;;;;;5056615;28;20047;-87
2023/10/24 01:08:09;;;;;;;16.85;15.45;;;12.20;99.90;;;;;;5056593;28;20039;-87
2023/10/24 01:10:36;;;;;;;13.98;12.68;;;12.20;99.90;;;;;;5057067;28;20048;-89
2023/10/24 01:13:03;;;;;;;14.48;13.25;;;12.20;99.90;;;;;;5075496;28;20051;-89
2023/10/24 01:15:30;;;;;;;17.42;15.60;;;12.20;99.90;;;;;;5061921;28;20044;-89
2023/10/24 01:17:58;;;;;;;17.08;15.45;;;12.20;99.90;;;;;;5028385;28;20051;-88
2023/10/24 01:20:25;;;;;;;14.45;13.15;;;12.20;99.90;;;;;;5057702;28;20491;-87
2023/10/24 01:22:51;;;;;;;14.85;13.50;;;12.30;99.90;;;;;;5043812;28;20434;-90
2023/10/24 01:25:18;;;;;;;16.17;14.75;;;12.20;99.90;;;;;;5028656;28;20040;-90
2023/10/24 01:27:44;;;;;;;18.05;16.35;;;12.30;99.90;;;;;;5061209;28;20044;-90
2023/10/24 01:30:12;;;;;;;13.88;12.52;;;12.30;99.90;;;;;;5028950;28;20383;-88
2023/10/24 01:32:39;;;;;;;15.27;13.98;;;12.30;99.90;;;;;;5045768;28;21262;-89
2023/10/24 01:35:08;;;;;;;17.15;15.52;;;12.30;99.90;;;;;;5045087;28;20048;-86
2023/10/24 01:37:35;;;;;;;15.30;14.00;;;12.30;99.90;;;;;;5038974;28;20051;-90
2023/10/24 01:40:05;;;;;;;19.65;17.75;;;12.30;99.90;;;;;;5029275;28;20044;-89
2023/10/24 01:42:32;;;;;;;19.00;17.30;;;12.30;99.90;;;;;;5044647;28;20059;-88
2023/10/24 01:44:58;;;;;;;17.23;15.63;;;12.30;99.90;;;;;;5028455;28;20043;-89
2023/10/24 01:47:24;;;;;;;18.70;16.90;;;12.30;99.90;;;;;;5027176;28;20032;-87
2023/10/24 01:49:51;;;;;;;21.73;19.45;;;12.30;99.90;;;;;;5045861;28;20043;-89
2023/10/24 01:52:17;;;;;;;17.02;15.45;;;12.40;99.90;;;;;;5064003;28;20036;-90
2023/10/24 01:54:43;;;;;;;18.20;16.40;;;12.30;99.90;;;;;;5028872;28;20040;-88
2023/10/24 01:57:10;;;;;;;16.35;14.65;;;12.40;99.90;;;;;;5044732;28;20517;-88
2023/10/24 01:59:36;;;;;;;20.05;15.07;;;12.30;99.90;;;;;;5027666;28;20040;-85
2023/10/24 02:02:02;;;;;;;15.60;12.95;;;12.40;99.90;;;;;;5061318;28;20040;-89
2023/10/24 02:04:28;;;;;;;13.18;10.85;;;12.30;99.90;;;;;;5061912;28;20043;-87
2023/10/24 02:06:55;;;;;;;12.65;10.93;;;12.30;99.90;;;;;;5045362;28;20181;-89
2023/10/24 02:09:21;;;;;;;11.68;10.38;;;12.30;99.90;;;;;;5026753;28;20403;-90
2023/10/24 02:11:48;;;;;;;21.67;16.88;;;12.30;99.90;;;;;;5026601;28;20043;-83
2023/10/24 02:14:14;;;;;;;18.02;13.93;;;12.30;99.90;;;;;;5061972;28;20495;-88
2023/10/24 02:16:40;;;;;;;16.95;13.63;;;12.30;99.90;;;;;;5080536;28;20036;-89
2023/10/24 02:19:07;;;;;;;18.13;14.05;;;12.20;99.90;;;;;;5045158;28;20044;-88
2023/10/24 02:21:33;;;;;;;14.10;11.82;;;12.20;99.90;;;;;;5043676;28;20066;-89
2023/10/24 02:23:59;;;;;;;12.32;10.38;;;12.20;99.90;;;;;;5058996;28;20421;-84
2023/10/24 02:26:25;;;;;;;11.73;10.40;;;12.20;99.90;;;;;;5061781;28;20284;-89
2023/10/24 02:28:52;;;;;;;9.55;8.30;;;12.20;99.90;;;;;;5027386;28;20059;-89
2023/10/24 02:31:18;;;;;;;8.63;7.25;;;12.20;99.90;;;;;;5044566;28;20040;-88
2023/10/24 02:33:44;;;;;;;7.97;6.57;;;12.20;99.90;;;;;;5045509;28;20367;-88
2023/10/24 02:36:11;;;;;;;12.30;9.35;;;12.20;99.90;;;;;;5059727;28;20499;-84
2023/10/24 02:38:38;;;;;;;11.93;8.57;;;12.20;99.90;;;;;;5061532;28;20036;-88
2023/10/24 02:41:04;;;;;;;11.35;9.25;;;12.20;99.90;;;;;;5026000;28;20376;-87
2023/10/24 02:43:31;;;;;;;8.95;7.35;;;12.20;99.90;;;;;;5028747;28;20052;-85
2023/10/24 02:46:00;;;;;;;9.48;8.48;;;12.20;99.90;;;;;;5033584;28;20047;-87
2023/10/24 02:48:27;;;;;;;10.48;7.90;;;12.20;99.90;;;;;;5087828;28;20047;-87
2023/10/24 02:50:54;;;;;;;8.15;6.70;;;12.10;99.90;;;;;;5030011;28;20516;-89
2023/10/24 02:53:21;;;;;;;8.10;6.50;;;12.10;99.90;;;;;;5062415;28;20066;-88
2023/10/24 02:55:48;;;;;;;7.30;6.55;;;12.10;99.90;;;;;;5028283;28;20040;-88
2023/10/24 02:58:15;;;;;;;9.20;7.20;;;12.00;99.90;;;;;;5028701;28;20047;-89
2023/10/24 03:00:43;;;;;;;11.40;7.25;;;12.00;99.90;;;;;;5045305;28;20043;-87
2023/10/24 03:03:09;;;;;;;6.95;6.10;;;12.00;99.90;;;;;;5028175;28;20063;-87
2023/10/24 03:05:36;;;;;;;7.03;5.68;;;12.00;99.90;;;;;;5044481;28;20035;-88
2023/10/24 03:08:04;;;;;;;5.90;5.30;;;12.00;99.90;;;;;;5027042;28;20032;-88
2023/10/24 03:10:30;;;;;;;6.63;6.00;;;12.00;99.90;;;;;;5027501;28;20052;-88
2023/10/24 03:12:58;;;;;;;8.23;7.32;;;12.00;99.90;;;;;;5043722;28;20044;-86
2023/10/24 03:15:24;;;;;;;7.25;6.55;;;12.00;99.90;;;;;;5024357;28;20036;-86
2023/10/24 03:17:50;;;;;;;8.07;6.93;;;12.00;99.90;;;;;;5078770;28;20139;-87
2023/10/24 03:20:16;;;;;;;7.70;6.90;;;12.00;99.90;;;;;;5024194;28;20401;-87
2023/10/24 03:22:43;;;;;;;10.30;8.98;;;12.00;99.90;;;;;;5043066;28;20048;-88
2023/10/24 03:25:09;;;;;;;9.88;8.55;;;12.00;99.90;;;;;;5043955;28;20040;-86
2023/10/24 03:27:36;;;;;;;9.93;8.05;;;11.90;99.90;;;;;;5042191;28;20052;-86
2023/10/24 03:30:02;;;;;;;8.98;8.05;;;12.00;99.90;;;;;;5043187;28;20398;-89
2023/10/24 03:32:29;;;;;;;10.13;8.30;;;12.00;99.90;;;;;;5059730;28;21923;-88
2023/10/24 03:34:56;;;;;;;10.00;9.00;;;12.00;99.90;;;;;;5024690;28;20052;-86
2023/10/24 03:37:24;;;;;;;11.65;9.57;;;12.00;99.90;;;;;;5058387;28;20051;-85
2023/10/24 03:39:50;;;;;;;8.93;7.75;;;12.00;99.90;;;;;;5026037;28;20051;-87
2023/10/24 03:42:16;;;;;;;12.48;10.07;;;12.00;99.90;;;;;;5059059;28;20051;-87
2023/10/24 03:44:43;;;;;;;12.68;9.45;;;12.00;99.90;;;;;;5024557;28;20047;-86
2023/10/24 03:47:09;;;;;;;15.73;12.98;;;12.00;99.90;;;;;;5041138;28;20055;-86
2023/10/24 03:49:35;;;;;;;11.55;10.35;;;11.90;99.90;;;;;;5022224;28;20071;-88
2023/10/24 03:52:02;;;;;;;14.60;11.32;;;11.90;99.90;;;;;;5059342;28;20050;-88
2023/10/24 03:54:31;;;;;;;9.90;8.50;;;11.90;99.90;;;;;;5076886;28;20044;-87
2023/10/24 03:56:57;;;;;;;11.02;8.10;;;11.90;99.90;;;;;;5059533;28;20067;-87
2023/10/24 03:59:23;;;;;;;12.32;9.52;;;11.90;99.90;;;;;;5025874;28;20043;-87
2023/10/24 04:01:50;;;;;;;11.23;9.60;;;11.90;99.90;;;;;;5058365;28;20055;-88
2023/10/24 04:04:16;;;;;;;15.75;11.90;;;11.90;99.90;;;;;;5058613;28;20040;-86
2023/10/24 04:06:43;;;;;;;9.27;7.97;;;11.90;99.90;;;;;;5041359;28;20475;-86
2023/10/24 04:09:10;;;;;;;7.38;6.30;;;11.80;99.90;;;;;;5058059;28;20040;-86
2023/10/24 04:11:36;;;;;;;7.55;6.65;;;11.90;99.90;;;;;;5065164;28;20040;-87
2023/10/24 04:14:03;;;;;;;13.20;9.80;;;11.80;99.90;;;;;;5077621;28;20039;-84
2023/10/24 04:16:32;;;;;;;8.60;7.65;;;11.80;99.90;;;;;;5041696;28;20102;-85
2023/10/24 04:18:59;;;;;;;8.50;7.38;;;11.80;99.90;;;;;;5024161;28;20039;-86
2023/10/24 04:21:25;;;;;;;8.77;7.88;;;11.80;99.90;;;;;;5057774;28;20043;-85
2023/10/24 04:23:51;;;;;;;9.77;8.40;;;11.80;99.90;;;;;;5057803;28;20044;-86
2023/10/24 04:26:18;;;;;;;10.65;8.57;;;11.80;99.90;;;;;;5040285;28;20778;-87
2023/10/24 04:28:44;;;;;;;10.63;9.52;;;11.70;99.90;;;;;;5054992;28;20032;-86
2023/10/24 04:31:10;;;;;;;9.60;7.82;;;11.70;99.90;;;;;;5023574;28;20040;-84
2023/10/24 04:33:37;;;;;;;7.75;6.95;;;11.70;99.90;;;;;;5034826;28;20070;-84
2023/10/24 04:36:08;;;;;;;9.05;7.32;;;11.70;99.90;;;;;;5039992;28;20044;-85
2023/10/24 04:38:35;;;;;;;8.32;7.50;;;11.70;99.90;;;;;;5040836;28;20044;-86
2023/10/24 04:41:01;;;;;;;8.52;7.45;;;11.70;99.90;;;;;;5039938;28;20403;-86
2023/10/24 04:43:27;;;;;;;9.43;8.43;;;11.70;99.90;;;;;;5057179;28;20415;-85
2023/10/24 04:45:54;;;;;;;9.35;7.88;;;11.70;99.90;;;;;;5062142;28;20047;-84
2023/10/24 04:48:20;;;;;;;9.63;8.02;;;11.70;99.90;;;;;;5047969;28;20040;-85
2023/10/24 04:50:46;;;;;;;9.15;7.07;;;11.70;99.90;;;;;;5044398;28;20054;-85
2023/10/24 04:53:13;;;;;;;8.27;7.05;;;11.70;99.90;;;;;;5079528;28;20467;-85
2023/10/24 04:55:39;;;;;;;8.38;7.07;;;11.70;99.90;;;;;;5040541;28;20040;-84
2023/10/24 04:58:06;;;;;;;9.43;8.00;;;11.70;99.90;;;;;;5024506;28;20055;-84
2023/10/24 05:00:33;;;;;;;7.88;6.55;;;11.70;99.90;;;;;;5057455;28;20044;-86
2023/10/24 05:03:01;;;;;;;8.18;6.53;;;11.70;99.90;;;;;;5042232;28;20091;-87
2023/10/24 05:05:27;;;;;;;9.63;7.55;;;11.70;99.90;;;;;;5041518;28;20494;-85
2023/10/24 05:07:54;;;;;;;9.32;7.22;;;11.60;99.90;;;;;;5039988;28;20044;-88
2023/10/24 05:10:20;;;;;;;8.07;7.10;;;11.60;99.90;;;;;;5040099;28;20760;-84
2023/10/24 05:12:46;;;;;;;10.25;7.38;;;11.60;99.90;;;;;;5040181;28;20501;-85
2023/10/24 05:15:13;;;;;;;10.15;8.65;;;11.60;99.90;;;;;;5039233;28;20028;-86
2023/10/24 05:17:39;;;;;;;12.52;10.15;;;11.60;99.90;;;;;;5055200;28;20045;-84
2023/10/24 05:20:07;;;;;;;10.98;8.82;;;11.60;99.90;;;;;;5054871;28;20047;-84
2023/10/24 05:22:34;;;;;;;12.05;8.90;;;11.60;99.90;;;;;;5039650;28;20040;-84
2023/10/24 05:25:00;;;;;;;12.50;10.32;;;11.60;99.90;;;;;;5054777;28;20051;-84
2023/10/24 05:27:27;;;;;;;13.10;10.25;;;11.60;99.90;;;;;;5055649;28;20036;-84
2023/10/24 05:29:53;;;;;;;11.40;9.15;;;11.60;99.90;;;;;;5023926;28;20499;-86
2023/10/24 05:32:19;;;;;;;9.75;7.90;;;11.60;99.90;;;;;;5024683;28;20059;-84
2023/10/24 05:34:46;;;;;;;12.77;10.13;;;11.60;99.90;;;;;;5036634;28;20047;-85
2023/10/24 05:37:12;;;;;;;14.43;10.75;;;11.60;99.90;;;;;;5035795;28;20051;-82
2023/10/24 05:39:39;;;;;;;16.92;12.52;;;11.60;99.90;;;;;;5054232;28;20040;-83
2023/10/24 05:42:05;;;;;;;14.75;11.82;;;11.60;99.90;;;;;;5038888;28;20051;-82
2023/10/24 05:44:31;;;;;;;12.77;9.63;;;11.60;99.90;;;;;;5039465;28;20048;-85
2023/10/24 05:46:58;;;;;;;15.52;11.05;;;11.50;99.90;;;;;;5040475;28;20051;-83
2023/10/24 05:49:24;;;;;;;12.27;8.48;;;11.60;99.90;;;;;;5038106;28;20048;-83
2023/10/24 05:51:52;;;;;;;12.43;9.77;;;11.50;99.90;;;;;;5034865;28;20044;-81
2023/10/24 05:54:18;;;;;;;14.68;11.13;;;11.50;99.90;;;;;;5038168;28;20036;-82
2023/10/24 05:56:44;;;;;;;16.42;12.15;;;11.50;99.90;;;;;;5039004;28;20043;-84
2023/10/24 05:59:10;;;;;;;18.25;11.75;;;11.50;99.90;;;;;;5054254;28;20036;-80
2023/10/24 06:01:37;;;;;;;18.08;11.63;;;11.50;99.90;;;;;;5060337;28;20056;-83
2023/10/24 06:04:03;;;;;;;14.38;10.82;;;11.50;99.90;;;;;;5060598;28;20043;-82
2023/10/24 06:06:29;;;;;;;15.05;11.65;;;11.50;99.90;;;;;;5025824;28;20035;-82
2023/10/24 06:08:56;;;;;;;14.23;11.38;;;11.50;99.90;;;;;;5078457;28;20063;-84
2023/10/24 06:11:22;;;;;;;14.23;10.90;;;11.50;99.90;;;;;;5028863;28;20047;-85
2023/10/24 06:13:48;;;;;;;13.10;9.82;;;11.50;99.90;;;;;;5054063;28;20036;-86
2023/10/24 06:16:18;;;;;;;13.63;11.07;;;11.50;99.90;;;;;;5079897;28;20032;-82
2023/10/24 06:18:44;;;;;;;14.45;9.85;;;11.50;99.90;;;;;;5042283;28;20055;-80
2023/10/24 06:21:12;;;;;;;13.32;9.65;;;11.50;99.90;;;;;;5056658;28;20040;-81
2023/10/24 06:23:38;;;;;;;13.82;9.40;;;11.50;99.90;;;;;;5059803;28;20044;-83
2023/10/24 06:26:15;;;;;;;14.50;10.07;;;11.50;99.90;;;;;;5058956;28;20043;-82
2023/10/24 06:28:44;;;;;;;13.43;10.75;;;11.50;99.90;;;;;;5021368;28;20127;-82
2023/10/24 06:31:11;;;;;;;19.88;15.23;;;11.50;99.90;;;;;;5041795;28;20032;-82
2023/10/24 06:33:38;;;;;;;16.52;11.60;;;11.50;99.90;;;;;;5034115;28;20224;-82
2023/10/24 06:36:05;;;;;;;13.73;10.57;;;11.50;99.90;;;;;;5023867;28;20048;-82
2023/10/24 06:38:31;;;;;;;12.95;10.93;;;11.50;99.90;;;;;;5058940;28;20275;-82
2023/10/24 06:40:58;;;;;;;11.45;8.90;;;11.50;99.90;;;;;;5042379;28;20040;-82
2023/10/24 06:43:26;;;;;;;13.25;9.73;;;11.50;99.90;;;;;;5027871;28;20043;-82
2023/10/24 06:45:53;;;;;;;12.20;10.55;;;11.50;99.90;;;;;;5044921;28;20055;-82
2023/10/24 06:48:20;;;;;;;12.80;11.45;;;11.50;99.90;;;;;;5048660;28;20036;-82
2023/10/24 06:50:46;;;;;;;12.82;11.38;;;11.50;99.90;;;;;;5058883;28;20382;-83
2023/10/24 06:53:13;;;;;;;15.73;11.13;;;11.50;99.90;;;;;;5058073;28;20919;-82
2023/10/24 06:55:40;;;;;;;13.45;11.00;;;11.50;99.90;;;;;;5042865;28;20398;-82
2023/10/24 06:58:06;;;;;;;9.98;8.82;;;11.50;99.90;;;;;;5041873;28;20131;-82
2023/10/24 07:00:33;;;;;;;9.70;8.70;;;11.50;99.90;;;;;;5024075;28;20036;-82
2023/10/24 07:02:59;;;;;;;8.95;8.05;;;11.50;99.90;;;;;;5040754;28;20147;-81
2023/10/24 07:05:27;;;;;;;9.38;7.65;;;11.50;99.90;;;;;;5042454;28;20051;-81
2023/10/24 07:07:53;;;;;;;9.45;7.78;;;11.50;99.90;;;;;;5025237;28;20040;-81
2023/10/24 07:10:20;;;;;;;9.40;8.07;;;11.50;99.90;;;;;;5040359;28;20044;-82
2023/10/24 07:12:47;;;;;;;8.25;6.70;;;11.50;99.90;;;;;;5042031;28;20047;-82
2023/10/24 07:15:13;;;;;;;8.02;7.22;;;11.50;99.90;;;;;;5043115;28;20048;-81
2023/10/24 07:17:39;;;;;;;7.13;6.43;;;11.50;99.90;;;;;;5037784;28;20036;-82
2023/10/24 07:20:06;;;;;;;7.68;6.80;;;11.50;99.90;;;;;;5058317;28;20043;-82
2023/10/24 07:22:32;;;;;;;8.30;7.35;;;11.50;99.90;;;;;;5050791;28;20059;-82
2023/10/24 07:24:59;;;;;;;8.45;7.32;;;11.50;99.90;;;;;;5058004;28;20079;-82
2023/10/24 07:27:25;;;;;;;8.57;7.38;;;11.50;99.90;;;;;;5058904;28;20031;-82
2023/10/24 07:29:51;;;;;;;7.22;6.53;;;11.50;99.90;;;;;;5039401;28;20643;-83
2023/10/24 07:32:18;;;;;;;9.13;7.47;;;11.60;99.90;;;;;;5040463;28;20483;-82
2023/10/24 07:34:44;;;;;;;9.75;8.85;;;11.60;99.90;;;;;;5077404;28;20031;-82
2023/10/24 07:37:10;;;;;;;7.50;6.75;;;11.60;99.90;;;;;;5058652;28;20051;-81
2023/10/24 07:39:37;;;;;;;10.48;7.88;;;11.70;99.90;;;;;;5024045;28;20045;-81
2023/10/24 07:42:04;;;;;;;7.38;6.05;;;11.70;99.90;;;;;;5026720;28;20430;-82
2023/10/24 07:44:30;;;;;;;6.25;5.10;;;11.70;99.90;;;;;;5025386;28;20418;-81
2023/10/24 07:46:56;;;;;;;6.93;6.13;;;11.80;99.90;;;;;;5057171;28;20250;-81
2023/10/24 07:49:23;;;;;;;8.63;6.90;;;11.80;99.90;;;;;;5023665;28;20047;-82
2023/10/24 07:51:49;;;;;;;7.45;6.18;;;11.80;99.90;;;;;;5054845;28;20487;-82
2023/10/24 07:54:15;;;;;;;8.25;6.75;;;11.80;99.90;;;;;;5057531;28;20044;-82
2023/10/24 07:56:43;;;;;;;6.43;5.60;;;11.80;99.90;;;;;;5041354;28;20454;-82
2023/10/24 07:59:09;;;;;;;8.32;7.50;;;11.80;99.90;;;;;;5040953;28;20039;-82
2023/10/24 08:01:36;;;;;;;7.47;6.68;;;11.80;99.90;;;;;;5027648;28;20036;-82
2023/10/24 08:04:02;;;;;;;7.65;6.85;;;11.80;99.90;;;;;;5025571;28;20048;-82
2023/10/24 08:06:29;;;;;;;8.15;6.93;;;11.80;99.90;;;;;;5020762;28;20048;-82
2023/10/24 08:08:55;;;;;;;6.68;5.97;;;11.80;99.90;;;;;;5023395;28;20052;-82
2023/10/24 08:11:21;;;;;;;6.80;5.85;;;11.90;99.90;;;;;;5024454;28;20491;-82
2023/10/24 08:13:48;;;;;;;8.43;7.28;;;11.80;99.90;;;;;;5024602;28;20058;-82
2023/10/24 08:16:14;;;;;;;8.80;7.68;;;11.90;99.90;;;;;;5041034;28;20036;-82
2023/10/24 08:18:40;;;;;;;7.60;6.47;;;11.80;99.90;;;;;;5055971;28;20039;-81
2023/10/24 08:21:07;;;;;;;8.43;7.53;;;11.90;99.90;;;;;;5056644;28;20040;-82
2023/10/24 08:23:33;;;;;;;8.07;7.28;;;11.90;99.90;;;;;;5023318;28;20055;-82
2023/10/24 08:25:59;;;;;;;9.10;7.88;;;11.80;99.90;;;;;;5024575;28;20594;-82
2023/10/24 08:28:26;;;;;;;8.32;7.43;;;11.90;99.90;;;;;;5057451;28;20047;-82
2023/10/24 08:30:53;;;;;;;10.50;8.45;;;11.90;99.90;;;;;;5056905;28;20048;-81
2023/10/24 08:33:20;;;;;;;10.15;8.90;;;12.00;99.90;;;;;;5057466;28;20047;-82
2023/10/24 08:35:47;;;;;;;9.85;8.52;;;12.00;99.90;;;;;;5040461;28;20379;-82
2023/10/24 08:38:13;;;;;;;7.55;6.78;;;12.10;99.90;;;;;;5020225;28;20044;-82
2023/10/24 08:40:40;;;;;;;9.27;7.80;;;12.20;99.90;;;;;;5040483;28;20375;-82
2023/10/24 08:43:08;;;;;;;8.93;8.02;;;12.30;99.90;;;;;;5023732;28;20387;-82
2023/10/24 08:45:35;;;;;;;8.43;7.43;;;12.40;99.90;;;;;;5057353;28;20028;-82
2023/10/24 08:48:05;;;;;;;9.73;7.93;;;12.50;99.90;;;;;;5026998;28;20398;-82
2023/10/24 08:50:34;;;;;;;8.55;7.65;;;12.60;99.90;;;;;;5053151;28;20036;-82
2023/10/24 08:53:01;;;;;;;8.32;7.53;;;12.70;99.90;;;;;;5040365;28;20051;-83
2023/10/24 08:55:29;;;;;;;8.82;7.65;;;12.80;99.90;;;;;;5041654;28;20040;-82
2023/10/24 08:57:59;;;;;;;8.73;7.78;;;13.00;99.90;;;;;;5040865;28;20047;-82
2023/10/24 09:00:27;;;;;;;11.25;8.98;;;13.10;99.90;;;;;;5039685;28;20047;-84
2023/10/24 09:02:55;;;;;;;13.43;10.98;;;13.20;99.90;;;;;;5039833;28;20040;-82
2023/10/24 09:05:27;;;;;;;11.13;9.35;;;13.20;99.90;;;;;;5058555;28;20044;-82
2023/10/24 09:07:56;;;;;;;12.70;9.90;;;13.20;99.90;;;;;;5041277;28;20510;-81
2023/10/24 09:10:22;;;;;;;10.52;8.80;;;13.30;99.90;;;;;;5060139;28;20043;-82
2023/10/24 09:12:55;;;;;;;11.27;10.10;;;13.30;99.90;;;;;;5039322;28;20055;-82
2023/10/24 09:15:22;;;;;;;11.90;9.82;;;13.40;99.90;;;;;;5058069;28;20284;-82
2023/10/24 09:17:48;;;;;;;11.05;9.80;;;13.50;99.90;;;;;;5057320;28;20039;-83
2023/10/24 09:20:18;;;;;;;9.80;8.80;;;13.50;99.90;;;;;;5057442;28;20028;-82
2023/10/24 09:22:44;;;;;;;8.60;7.75;;;13.50;99.90;;;;;;5024366;28;20044;-82
2023/10/24 09:25:12;;;;;;;9.65;8.65;;;13.40;99.90;;;;;;5075518;28;20472;-82
2023/10/24 09:27:38;;;;;;;8.27;7.47;;;13.40;99.90;;;;;;5075695;28;20386;-82
2023/10/24 09:30:12;;;;;;;10.93;8.27;;;13.40;99.90;;;;;;5037056;28;20044;-82
2023/10/24 09:32:43;;;;;;;9.23;8.40;;;13.50;99.90;;;;;;5039998;28;20036;-81
2023/10/24 09:35:10;;;;;;;8.23;7.15;;;13.50;99.90;;;;;;5056439;28;20042;-81
2023/10/24 09:37:45;;;;;;;8.48;6.88;;;13.60;99.90;;;;;;5059435;28;20058;-81
2023/10/24 09:40:12;;;;;;;9.85;8.43;;;13.70;99.90;;;;;;5026303;28;20039;-81
2023/10/24 09:42:41;;;;;;;6.65;6.05;;;13.80;99.90;;;;;;5026680;28;20047;-82
2023/10/24 09:45:09;;;;;;;10.32;8.73;;;13.80;99.90;;;;;;5043640;28;20509;-81
2023/10/24 09:47:37;;;;;;;11.85;10.63;;;13.90;99.90;;;;;;5043040;28;20044;-82
2023/10/24 09:50:05;;;;;;;11.35;10.07;;;14.00;99.90;;;;;;5044899;28;20040;-83
2023/10/24 09:52:32;;;;;;;9.43;8.52;;;14.20;99.90;;;;;;5040790;28;20054;-85
2023/10/24 09:54:59;;;;;;;8.40;7.32;;;14.50;99.90;;;;;;5043974;28;20043;-84
2023/10/24 09:57:26;;;;;;;8.07;7.15;;;14.60;99.90;;;;;;5027264;28;20048;-84
2023/10/24 09:59:55;;;;;;;7.90;7.20;;;14.80;99.90;;;;;;5044670;28;21004;-85
2023/10/24 10:02:25;;;;;;;6.72;6.10;;;15.20;99.90;;;;;;5042811;28;20043;-85
2023/10/24 10:04:51;;;;;;;5.75;5.20;;;15.60;99.90;;;;;;5058847;28;20044;-83
2023/10/24 10:07:20;;;;;;;6.95;5.30;;;15.70;99.90;;;;;;5025971;28;20032;-85
2023/10/24 10:09:50;;;;;;;5.25;4.75;;;15.80;99.90;;;;;;5043554;28;20040;-84
2023/10/24 10:12:19;;;;;;;5.90;5.03;;;15.90;99.90;;;;;;5043388;28;20048;-85
2023/10/24 10:15:12;;;;;;;4.72;4.13;;;16.00;99.90;;;;;;5036122;28;20051;-85
2023/10/24 10:18:04;;;;;;;3.85;3.42;;;16.00;99.90;;;;;;5078456;28;20475;-84
2023/10/24 10:21:09;;;;;;;5.03;4.40;;;15.90;99.90;;;;;;5043853;28;20044;-84
2023/10/24 10:24:05;;;;;;;5.50;4.32;;;15.70;99.90;;;;;;5040538;28;20051;-82
2023/10/24 10:26:59;;;;;;;3.92;3.33;;;15.50;99.90;;;;;;5043230;28;20051;-85
2023/10/24 10:29:28;;;;;;;6.38;4.60;;;15.40;99.90;;;;;;5049443;28;20044;-84
2023/10/24 10:32:28;;;;;;;2.90;2.70;;;15.20;99.90;;;;;;5079081;28;20040;-83
2023/10/24 10:34:55;;;;;;;6.22;4.95;;;14.90;99.90;;;;;;5045875;28;20043;-83
2023/10/24 10:37:21;;;;;;;3.67;3.38;;;14.80;99.90;;;;;;5077989;28;20098;-86
2023/10/24 10:40:22;;;;;;;4.72;3.60;;;14.70;99.90;;;;;;5040380;28;20078;-85
2023/10/24 10:42:50;;;;;;;4.65;3.35;;;14.70;99.90;;;;;;5077583;28;20040;-84
2023/10/24 10:45:26;;;;;;;3.90;3.22;;;14.80;99.90;;;;;;5062256;28;20422;-86
2023/10/24 10:47:56;;;;;;;4.30;3.13;;;14.90;99.90;;;;;;5065117;28;20042;-84
2023/10/24 10:50:24;;;;;;;6.05;3.78;;;14.90;99.90;;;;;;5076512;28;20455;-82
2023/10/24 10:53:11;;;;;;;4.30;3.90;;;15.00;99.90;;;;;;5060391;28;20039;-81
2023/10/24 10:55:38;;;;;;;4.25;3.85;;;15.10;99.90;;;;;;5045276;28;20388;-81
2023/10/24 10:58:28;;;;;;;6.53;4.80;;;15.10;99.90;;;;;;5024096;28;20082;-81
2023/10/24 11:01:36;;;;;;;4.70;3.20;;;15.10;99.90;;;;;;5059167;28;20047;-83
2023/10/24 11:04:13;;;;;;;5.40;4.57;;;15.00;99.90;;;;;;4993720;28;20052;-84
2023/10/24 11:06:56;;;;;;;4.60;4.10;;;15.00;99.90;;;;;;5041171;28;20040;-85
2023/10/24 11:09:35;;;;;;;5.43;3.83;;;14.90;99.90;;;;;;5043116;28;20048;-83
2023/10/24 11:12:20;;;;;;;4.28;2.78;;;14.90;99.90;;;;;;5043875;28;20047;-84
2023/10/24 11:15:16;;;;;;;3.60;2.83;;;14.90;99.90;;;;;;5041569;28;20040;-84
2023/10/24 11:17:43;;;;;;;3.45;3.15;;;14.90;99.90;;;;;;5041746;28;20282;-84
2023/10/24 11:20:10;;;;;;;4.38;3.78;;;14.90;99.90;;;;;;5022753;28;20039;-84
2023/10/24 11:22:38;;;;;;;3.20;2.88;;;14.90;99.90;;;;;;5040665;28;20043;-84
2023/10/24 11:25:11;;;;;;;4.78;3.35;;;14.90;99.90;;;;;;5058278;28;20471;-83
2023/10/24 11:27:41;;;;;;;3.15;2.70;;;14.90;99.90;;;;;;5018724;28;20056;-84
2023/10/24 11:30:08;;;;;;;4.82;3.28;;;15.00;99.90;;;;;;5025043;28;20028;-83
2023/10/24 11:32:34;;;;;;;3.60;3.28;;;15.00;99.90;;;;;;5042172;28;20395;-82
2023/10/24 11:35:04;;;;;;;4.95;4.13;;;15.00;99.90;;;;;;5023223;28;22529;-83
2023/10/24 11:37:32;;;;;;;4.47;3.67;;;15.00;99.90;;;;;;5057488;28;20047;-82
2023/10/24 11:39:58;;;;;;;6.75;3.97;;;15.00;99.90;;;;;;5040910;28;20382;-83
2023/10/24 11:42:24;;;;;;;4.45;4.05;;;15.00;99.90;;;;;;5023832;28;20051;-84
2023/10/24 11:44:52;;;;;;;5.25;4.15;;;15.00;99.90;;;;;;5040967;28;20407;-84
2023/10/24 11:47:18;;;;;;;5.60;3.45;;;15.00;99.90;;;;;;5055575;28;20032;-82
2023/10/24 11:49:47;;;;;;;4.72;3.10;;;14.90;99.90;;;;;;5058078;28;20044;-82
2023/10/24 11:52:14;;;;;;;3.67;3.17;;;14.80;99.90;;;;;;5023125;28;20040;-82
2023/10/24 11:54:41;;;;;;;4.65;3.35;;;14.70;99.90;;;;;;5041347;28;20059;-84
2023/10/24 11:57:08;;;;;;;4.03;3.13;;;14.60;99.90;;;;;;5038104;28;20044;-83
2023/10/24 11:59:35;;;;;;;6.57;3.50;;;14.60;99.90;;;;;;5059020;28;20044;-82
2023/10/24 12:02:03;;;;;;;5.55;3.85;;;14.50;99.90;;;;;;5040727;28;20059;-82
2023/10/24 12:04:30;;;;;;;4.50;4.05;;;14.40;99.90;;;;;;5056982;28;20808;-82
2023/10/24 12:07:02;;;;;;;5.10;3.55;;;14.30;99.90;;;;;;5023609;28;20442;-83
2023/10/24 12:09:32;;;;;;;5.72;3.17;;;14.20;99.90;;;;;;5056032;28;20047;-82
2023/10/24 12:12:00;;;;;;;3.65;3.30;;;14.10;99.90;;;;;;5057433;28;20036;-84
2023/10/24 12:14:27;;;;;;;3.97;2.78;;;14.10;99.90;;;;;;5057451;28;20443;-83
2023/10/24 12:16:53;;;;;;;3.13;2.38;;;14.10;99.90;;;;;;5040683;28;20039;-84
2023/10/24 12:19:20;;;;;;;4.80;2.67;;;14.00;99.90;;;;;;5057276;28;20036;-84
2023/10/24 12:21:46;;;;;;;4.68;3.22;;;14.00;99.90;;;;;;5040037;28;20054;-83
2023/10/24 12:24:13;;;;;;;4.40;2.67;;;14.00;99.90;;;;;;5025221;28;20047;-85
2023/10/24 12:26:39;;;;;;;5.55;3.30;;;13.90;99.90;;;;;;5024450;28;20667;-85
2023/10/24 12:29:10;;;;;;;4.15;3.60;;;13.90;99.90;;;;;;5040537;28;20058;-84
2023/10/24 12:31:40;;;;;;;3.42;2.75;;;13.90;99.90;;;;;;5057274;28;20035;-84
2023/10/24 12:34:10;;;;;;;2.70;2.10;;;14.10;99.90;;;;;;5039598;28;20043;-84
2023/10/24 12:36:36;;;;;;;3.22;2.80;;;14.20;99.90;;;;;;5037519;28;20062;-84
2023/10/24 12:39:02;;;;;;;3.35;2.67;;;14.30;99.90;;;;;;5038647;28;20050;-84
2023/10/24 12:41:29;;;;;;;3.05;2.60;;;14.30;99.90;;;;;;5039877;28;20048;-83
2023/10/24 12:43:56;;;;;;;3.65;2.53;;;14.30;99.90;;;;;;5058443;28;20059;-83
2023/10/24 12:46:22;;;;;;;3.55;2.20;;;14.20;99.90;;;;;;5043898;28;20047;-83